Date,TemperatureHighF,TemperatureAvgF,TemperatureLowF,DewpointHighF,DewpointAvgF,DewpointLowF,HumidityHigh,HumidityAvg,HumidityLow,PressureMaxIn,PressureMinIn,WindSpeedMaxMPH,WindSpeedAvgMPH,GustSpeedMaxMPH,PrecipitationSumIn
2013-1-1,47,44,40,41,37,30,92,76,54,30.01,29.87,3,0,0,0.16
2013-1-2,44,40,35,38,34,28,95,82,65,30.18,29.95,1,0,0,0.11
2013-1-3,40,35,31,28,24,20,83,63,45,30.23,30.14,2,0,0,0.00
2013-1-4,49,38,29,27,25,22,89,61,40,30.21,30.10,4,0,0,0.00
2013-1-5,52,37,28,27,24,22,81,61,35,30.35,30.18,5,0,0,0.00
2013-1-6,57,49,42,35,32,30,67,53,42,30.11,30.00,4,0,0,0.03
2013-1-7,54,42,34,33,30,27,81,64,44,30.41,30.11,5,0,0,0.00
2013-1-8,52,41,31,38,33,28,94,76,54,30.44,30.34,2,0,0,0.00
2013-1-9,66,53,39,54,46,36,91,76,62,30.37,30.23,6,0,0,0.00
2013-1-10,62,50,41,51,38,31,97,68,36,30.54,30.34,4,0,0,0.00
2013-1-11,49,44,37,48,41,31,97,88,75,30.46,30.08,2,0,0,0.04
2013-1-12,50,50,49,49,49,48,97,97,96,30.08,30.06,3,0,0,0.00
2013-1-13,60,60,60,60,60,59,98,98,97,29.99,29.98,0,0,0,0.01
2013-1-14,63,56,45,62,55,43,98,96,90,30.21,29.99,6,0,0,0.83
2013-1-15,44,42,40,43,41,40,98,97,95,30.27,30.07,5,0,0,0.87
2013-1-16,45,41,38,45,41,37,98,98,97,30.07,29.88,3,0,0,0.43
2013-1-17,46,41,33,46,40,33,99,97,93,30.09,29.95,4,0,0,0.77
2013-1-18,42,34,30,34,30,26,98,86,57,30.49,30.06,4,0,0,0.45
2013-1-19,56,41,30,35,30,26,88,68,40,30.45,30.05,4,0,0,0.04
2013-1-20,61,48,38,36,32,28,74,55,35,30.04,29.86,7,1,0,0.00
2013-1-21,57,43,29,31,25,17,72,51,31,30.06,29.76,6,1,0,0.00
2013-1-22,35,30,22,19,6,-2,56,37,23,30.26,29.89,5,1,0,0.00
2013-1-23,36,26,16,17,5,1,69,43,24,30.33,30.07,4,0,0,0.00
2013-1-24,32,26,20,24,14,4,89,64,35,30.52,29.98,6,1,0,0.00
2013-1-25,28,22,18,22,13,6,90,68,41,30.51,30.06,2,0,0,0.00
2013-1-26,42,30,21,30,25,19,94,82,58,30.41,30.05,2,0,0,0.11
2013-1-27,43,34,25,28,24,22,90,70,46,30.58,30.40,4,0,0,0.00
2013-1-28,52,50,49,44,44,43,83,78,74,30.13,30.08,5,1,0,0.26
2013-1-29,78,58,46,58,50,44,94,75,48,30.12,29.99,3,0,0,0.00
2013-1-30,72,67,59,63,61,55,91,81,72,29.97,29.28,10,2,0,0.04
2013-1-31,67,48,36,64,32,17,94,56,33,29.93,29.19,10,3,0,0.78
2013-2-1,40,33,23,26,13,5,69,46,28,30.36,29.76,9,1,0,0.00
2013-2-2,40,29,20,26,15,8,78,57,33,30.37,29.98,4,0,0,0.00
2013-2-3,44,38,30,31,26,19,84,64,49,29.97,29.80,4,0,0,0.00
2013-2-4,43,36,26,26,20,17,73,54,39,30.11,29.91,3,0,0,0.00
2013-2-5,60,48,40,37,32,26,66,55,41,29.90,29.79,5,1,0,0.00
2013-2-6,61,46,34,38,33,30,87,65,37,30.30,29.89,5,0,0,0.00
2013-2-7,48,39,32,37,31,27,93,75,57,30.38,30.11,4,0,0,0.12
2013-2-8,50,43,38,45,38,27,97,84,55,30.10,29.70,6,1,0,0.84
2013-2-9,52,40,32,27,22,17,75,52,30,30.35,29.90,5,1,0,0.00
2013-2-10,53,38,26,32,23,17,76,55,33,30.47,30.22,2,0,0,0.00
2013-2-11,62,52,40,58,49,32,97,88,66,30.22,29.77,7,1,0,0.05
2013-2-12,65,54,44,48,33,28,74,48,27,29.98,29.79,8,0,0,0.00
2013-2-13,49,45,39,43,38,32,95,78,54,29.89,29.59,2,0,0,0.09
2013-2-14,55,42,32,40,35,31,97,77,44,30.02,29.77,2,0,0,0.01
2013-2-15,66,48,34,41,34,29,94,64,25,30.03,29.86,5,0,0,0.00
2013-2-16,43,37,32,38,34,24,95,89,72,29.98,29.80,4,1,0,0.17
2013-2-17,35,30,26,22,12,5,71,49,30,30.21,29.81,6,1,0,0.00
2013-2-18,51,36,24,22,13,8,57,41,21,30.38,30.19,3,0,0,0.00
2013-2-19,43,38,34,40,28,22,92,68,52,30.19,29.84,2,0,0,0.14
2013-2-20,49,41,31,37,20,15,84,45,29,30.12,29.84,6,1,0,0.00
2013-2-21,50,36,25,26,19,15,69,52,34,30.27,30.10,4,0,0,0.00
2013-2-22,41,36,33,35,27,19,92,70,54,30.34,30.17,2,0,0,0.06
2013-2-23,44,40,36,42,39,35,97,95,93,30.16,29.79,2,0,0,0.14
2013-2-24,59,48,38,45,40,26,97,76,46,30.06,29.76,4,0,0,0.00
2013-2-28,50,46,41,38,30,27,77,56,42,29.73,29.62,5,1,0,0.00
2013-3-1,48,42,37,31,29,26,74,61,50,29.86,29.73,3,1,0,0.00
2013-3-2,41,37,34,28,26,24,67,62,54,29.88,29.79,4,0,0,0.00
2013-3-3,48,37,28,27,23,19,77,57,37,29.90,29.77,2,0,0,0.00
2013-3-4,51,38,28,21,18,15,65,46,27,30.02,29.90,6,1,0,0.00
2013-3-5,51,39,30,37,27,18,95,64,35,30.06,29.68,9,1,0,0.36
2013-3-6,42,37,33,41,35,32,97,94,84,29.93,29.36,11,3,0,1.86
2013-3-7,53,43,35,35,31,27,84,65,44,30.13,29.93,6,2,0,0.01
2013-3-8,53,43,36,34,29,27,73,60,46,30.21,30.09,12,2,0,0.00
2013-3-9,65,45,35,35,30,28,74,58,30,30.30,30.21,4,1,0,0.00
2013-3-14,40,40,40,18,18,17,41,40,40,30.07,30.06,0,0,0,0.00
2013-3-15,61,47,33,36,26,18,60,45,28,30.09,29.79,10,1,0,0.00
2013-3-16,73,56,47,57,46,35,96,71,47,29.82,29.54,2,0,0,0.39
2013-3-17,49,40,37,47,38,36,95,92,89,30.24,29.82,5,0,0,0.14
2013-3-18,40,36,34,39,35,33,97,96,95,30.25,29.92,2,0,0,0.46
2013-3-25,37,37,37,36,36,35,95,94,94,29.68,29.66,0,0,0,0.55
2013-3-26,51,42,32,37,31,27,94,65,43,29.99,29.69,7,1,0,0.07
2013-3-27,54,44,37,31,27,24,73,53,35,30.12,30.00,4,1,0,0.00
2013-3-28,56,46,38,32,28,25,62,50,36,30.22,30.09,7,1,0,0.00
2013-3-29,61,49,40,35,30,26,67,49,31,30.25,30.12,4,0,0,0.00
2013-3-30,57,42,36,38,34,31,90,73,40,30.19,30.15,2,0,0,0.00
2013-4-11,73,73,72,61,60,59,66,64,63,29.73,29.72,2,0,0,0.00
2013-4-12,78,71,67,70,66,62,95,83,68,29.73,29.58,6,1,0,0.32
2013-4-28,57,56,55,53,53,52,94,89,85,30.13,30.10,2,1,0,0.04
2013-4-29,66,60,54,63,58,53,98,95,87,30.10,29.95,4,0,0,0.82
2013-4-30,69,61,56,63,58,55,96,91,78,30.18,30.01,4,0,0,0.02
2013-5-1,72,62,54,58,52,44,96,72,49,30.35,30.18,6,1,0,0.00
2013-5-2,71,58,53,57,52,46,92,83,55,30.37,30.32,4,0,0,0.00
2013-5-18,68,65,62,66,64,60,97,95,91,30.16,30.10,5,0,0,0.59
2013-5-19,73,66,64,69,65,63,99,96,84,30.14,30.09,1,0,0,0.00
2013-5-20,71,70,70,68,68,68,94,92,89,29.98,29.97,0,0,0,0.08
2013-5-21,76,71,69,70,68,67,95,90,81,29.99,29.94,2,0,0,0.01
2013-5-23,84,76,70,74,70,67,93,81,61,29.88,29.74,6,1,0,0.07
2013-5-24,70,63,50,68,55,39,93,75,50,30.12,29.73,4,0,0,0.05
2013-5-25,75,58,44,45,39,35,72,52,27,30.20,30.05,5,0,0,0.00
2013-5-26,82,64,46,45,42,39,81,48,24,30.21,30.10,3,0,0,0.00
2013-5-27,82,66,48,59,51,44,89,62,35,30.24,30.13,6,0,0,0.00
2013-5-28,89,70,61,69,60,55,83,72,50,30.17,30.09,4,0,0,0.00
2013-6-7,69,69,68,69,68,68,98,97,97,29.71,29.54,2,0,0,2.09
2013-6-8,85,73,67,73,68,66,99,87,57,30.05,29.72,2,0,0,0.40
2013-6-9,90,76,65,75,70,64,99,82,56,30.13,30.02,3,0,0,0.00
2013-6-10,82,76,72,76,73,70,97,91,78,30.04,29.80,3,0,0,0.82
2013-6-11,89,78,70,73,69,66,97,77,49,29.85,29.77,6,0,0,0.00
2013-6-12,95,82,68,74,70,65,89,69,47,29.86,29.77,5,0,0,0.00
2013-6-13,95,79,68,76,72,63,96,81,44,29.77,29.47,6,1,0,0.55
2013-6-14,85,72,62,64,60,56,84,67,42,29.94,29.59,4,0,0,0.00
2013-6-15,91,76,60,66,61,58,95,64,36,30.05,29.94,2,0,0,0.00
2013-6-16,92,79,66,71,67,62,87,68,48,30.00,29.89,4,0,0,0.00
2013-6-17,90,78,70,77,71,67,96,80,58,29.96,29.86,2,0,0,0.27
2013-6-18,78,72,66,76,71,65,97,94,82,29.90,29.72,4,0,0,1.41
2013-6-19,79,70,64,70,67,64,99,89,72,30.10,29.83,0,0,0,0.00
2013-6-20,86,73,63,65,61,55,97,69,42,30.23,30.11,4,0,0,0.00
2013-6-21,89,72,57,69,62,55,98,74,48,30.25,30.18,8,0,0,0.00
2013-6-22,92,75,64,75,69,63,96,83,53,30.21,30.12,6,0,0,0.23
2013-6-23,92,78,69,76,72,68,98,85,55,30.15,30.05,2,0,0,0.23
2013-6-24,95,82,72,78,74,71,96,77,52,30.11,30.00,5,0,0,0.00
2013-6-25,98,85,73,77,73,71,92,70,43,30.03,29.89,4,0,0,0.00
2013-6-26,99,82,71,78,73,69,94,76,47,29.91,29.78,3,0,0,0.14
2013-6-27,89,77,69,77,71,68,97,84,58,29.82,29.62,5,0,0,0.00
2013-6-28,95,82,73,76,73,69,95,75,49,29.64,29.46,3,0,0,0.02
2013-6-29,96,82,71,75,72,68,94,73,42,29.67,29.51,4,0,0,0.01
2013-6-30,94,81,75,78,74,70,93,79,54,29.83,29.67,5,0,0,0.05
2013-7-1,85,76,71,78,74,70,98,93,75,29.96,29.81,2,0,0,1.08
2013-7-2,81,75,72,78,73,71,98,94,83,30.16,29.96,4,0,0,0.52
2013-7-3,91,78,72,79,75,71,98,91,64,30.21,30.13,3,0,0,0.60
2013-7-4,92,82,73,78,74,72,98,80,55,30.24,30.14,4,0,0,0.00
2013-7-5,94,82,72,77,74,71,96,76,52,30.23,30.11,5,0,0,0.00
2013-7-6,95,83,75,78,74,71,94,76,48,30.18,30.07,3,0,0,0.00
2013-7-7,93,83,75,78,74,72,91,75,56,30.10,29.98,5,0,0,0.00
2013-7-8,92,79,73,76,73,72,96,82,53,30.10,30.02,2,0,0,0.12
2013-7-9,94,82,74,81,75,72,95,80,59,30.08,29.98,4,0,0,0.00
2013-7-10,93,80,72,80,74,71,97,85,60,30.01,29.87,3,0,0,0.90
2013-7-11,82,75,71,79,73,71,99,94,79,29.91,29.84,2,0,0,0.23
2013-7-12,78,73,69,74,71,68,98,93,84,30.00,29.83,0,0,0,0.51
2013-7-13,89,76,68,79,73,67,98,90,69,30.21,30.00,5,0,0,0.16
2013-7-14,96,82,72,80,74,71,99,79,49,30.29,30.21,2,0,0,0.00
2013-7-15,99,83,72,78,74,71,98,77,48,30.28,30.17,2,0,0,0.00
2013-7-16,103,87,76,82,76,70,89,71,48,30.18,30.10,2,0,0,0.00
2013-7-17,101,87,74,80,76,72,97,71,44,30.16,30.05,2,0,0,0.00
2013-7-18,102,88,76,80,76,74,96,71,45,30.09,29.97,1,0,0,0.00
2013-7-19,98,87,77,83,77,75,94,74,54,30.00,29.88,6,0,0,0.00
2013-7-20,97,84,78,81,76,74,89,78,54,29.90,29.81,4,0,0,0.13
2013-7-21,95,81,72,80,75,70,98,83,57,29.92,29.82,4,0,0,1.65
2013-7-22,75,72,72,75,72,71,99,98,98,29.89,29.86,0,0,0,0.01
2013-7-24,77,76,75,70,69,67,80,78,76,29.83,29.80,0,0,0,0.00
2013-7-25,86,76,66,70,65,62,90,71,48,29.99,29.81,3,0,0,0.03
2013-7-26,91,75,62,70,64,60,97,72,39,30.06,29.97,1,0,0,0.00
2013-7-27,90,77,67,74,69,65,97,77,55,30.02,29.88,1,0,0,0.00
2013-7-28,93,78,70,76,71,67,97,80,53,29.94,29.85,4,0,0,0.74
2013-7-29,89,76,68,70,67,63,98,78,45,30.12,29.93,3,0,0,0.01
2013-7-30,91,76,64,69,65,62,97,72,45,30.19,30.10,0,0,0,0.00
2013-7-31,88,73,67,73,69,65,97,86,62,30.11,29.99,2,0,0,0.33
2013-8-1,86,73,69,77,71,68,98,94,68,29.99,29.79,1,0,0,0.80
2013-8-2,91,77,66,75,69,66,99,78,48,29.95,29.83,3,0,0,0.01
2013-8-3,92,79,70,76,70,67,92,75,47,29.93,29.86,2,0,0,0.00
2013-8-4,91,78,67,70,65,60,91,67,39,29.99,29.85,3,0,0,0.00
2013-8-5,88,73,61,65,61,57,90,68,41,30.06,29.98,1,0,0,0.00
2013-8-6,76,70,64,71,67,62,98,91,78,30.03,29.96,2,0,0,1.12
2013-8-7,91,79,69,74,71,68,97,78,51,30.04,29.97,4,0,0,0.00
2013-8-8,92,82,74,77,74,72,93,78,55,30.02,29.94,4,0,0,0.00
2013-8-9,95,85,76,79,76,74,92,76,57,29.95,29.86,6,1,0,0.00
2013-8-10,90,80,72,78,74,71,97,85,65,30.05,29.92,1,0,0,0.64
2013-8-11,86,78,72,78,74,71,98,89,74,30.07,29.96,0,0,0,0.00
2013-8-12,92,81,73,79,74,72,98,81,57,29.99,29.88,0,0,0,0.00
2013-8-13,92,81,75,77,74,72,94,80,57,29.88,29.70,3,0,0,0.00
2013-8-14,81,71,61,72,60,55,91,69,46,30.06,29.75,2,0,0,0.01
2013-8-15,83,68,58,64,59,55,90,75,44,30.14,30.05,0,0,0,0.00
2013-8-16,82,68,57,65,60,55,98,78,50,30.16,30.08,3,0,0,0.00
2013-8-17,80,70,62,69,64,59,94,82,60,30.19,30.12,4,0,0,0.18
2013-8-18,69,67,65,68,66,64,98,96,93,30.18,30.09,0,0,0,0.48
2013-8-19,73,68,64,71,67,64,99,95,90,30.17,30.05,0,0,0,0.19
2013-8-20,90,77,68,77,72,67,99,85,59,30.14,30.06,5,0,0,0.00
2013-8-21,92,80,70,78,74,69,99,83,60,30.17,30.04,0,0,0,0.00
2013-8-22,95,82,73,77,72,68,96,75,44,30.07,29.92,1,0,0,0.00
2013-8-23,80,72,63,74,70,62,97,91,78,30.07,29.89,0,0,0,0.87
2013-8-24,86,71,59,75,65,58,99,82,54,30.29,30.07,0,0,0,0.01
2013-8-25,86,72,62,69,62,57,99,75,39,30.37,30.25,5,0,0,0.00
2013-8-26,92,73,57,68,62,56,96,70,41,30.29,30.02,1,0,0,0.00
2013-8-27,93,78,66,77,69,60,92,74,50,30.02,29.87,3,0,0,0.06
2013-8-28,82,76,72,75,73,70,97,90,75,29.90,29.78,2,0,0,0.65
2013-8-29,87,77,70,78,73,68,99,88,67,29.98,29.76,1,0,0,0.00
2013-8-30,92,77,66,73,69,65,99,79,52,30.02,29.89,2,0,0,0.00
2013-8-31,92,79,69,77,72,68,95,79,59,29.91,29.78,4,0,0,0.00
2013-9-1,96,80,71,77,73,69,96,79,50,29.83,29.71,4,0,0,0.11
2013-9-2,94,81,72,78,73,71,96,80,50,29.79,29.71,2,0,0,0.00
2013-9-3,94,80,72,74,71,66,96,76,48,29.90,29.70,2,0,0,0.00
2013-9-4,89,76,64,67,63,59,89,67,43,30.05,29.90,2,0,0,0.00
2013-9-5,95,77,63,69,64,60,97,68,34,30.06,29.96,4,0,0,0.00
2013-9-6,86,72,61,66,60,56,87,66,43,30.17,30.06,1,0,0,0.00
2013-9-7,84,71,59,65,62,58,97,75,51,30.10,29.92,5,0,0,0.00
2013-9-8,94,78,64,71,66,62,95,72,45,29.96,29.84,1,0,0,0.00
2013-9-9,83,76,68,72,68,61,91,77,65,30.13,29.95,0,0,0,0.00
2013-9-10,96,81,69,76,72,68,98,76,50,30.16,30.07,1,0,0,0.00
2013-9-11,96,82,71,77,71,67,92,71,47,30.12,30.00,2,0,0,0.00
2013-9-12,96,80,70,76,71,66,97,76,50,29.99,29.71,4,0,0,0.23
2013-9-13,86,74,64,70,64,54,98,74,43,29.87,29.67,1,0,0,0.01
2013-9-14,79,65,55,56,52,49,84,64,37,30.12,29.87,2,0,0,0.00
2013-9-15,85,66,50,59,54,48,98,69,38,30.21,30.07,1,0,0,0.00
2013-9-16,84,68,60,68,61,56,94,80,58,30.17,30.04,2,0,0,0.00
2013-9-17,77,63,53,58,53,48,96,73,41,30.35,30.17,2,0,0,0.00
2013-9-18,80,64,48,55,52,47,98,68,35,30.29,30.15,1,0,0,0.00
2013-9-19,85,67,52,61,57,51,98,74,41,30.16,30.05,1,0,0,0.00
2013-9-20,86,69,57,66,61,55,95,76,50,30.06,29.93,1,0,0,0.00
2013-9-21,77,68,59,68,63,57,97,86,64,29.94,29.68,3,0,0,0.75
2013-9-22,82,68,59,66,61,54,99,80,48,29.88,29.69,4,0,0,0.13
2013-9-23,75,61,52,55,52,49,91,73,46,30.05,29.88,1,0,0,0.00
2013-9-24,80,62,48,57,52,47,97,75,42,30.07,29.91,1,0,0,0.00
2013-9-25,81,65,50,61,56,49,98,75,42,29.93,29.84,0,0,0,0.00
2013-9-26,83,67,58,64,58,55,94,75,42,30.02,29.86,1,0,0,0.00
2013-9-27,76,63,54,63,56,53,98,81,54,30.18,30.02,2,0,0,0.00
2013-9-28,72,63,53,61,57,52,97,81,64,30.24,30.15,1,0,0,0.00
2013-9-29,78,64,53,64,58,52,98,82,57,30.15,30.01,1,0,0,0.00
2013-9-30,82,64,53,60,56,52,98,77,43,30.06,29.95,0,0,0,0.00
2013-10-1,89,69,55,66,60,54,97,75,44,30.05,29.95,1,0,0,0.00
2013-10-2,92,72,58,67,61,57,98,73,36,30.06,29.98,1,0,0,0.00
2013-10-3,90,74,60,68,64,58,98,74,43,30.07,30.00,2,0,0,0.00
2013-10-4,94,77,64,71,66,62,96,73,41,30.05,29.98,1,0,0,0.00
2013-10-5,96,78,64,71,67,63,97,72,40,30.05,29.96,0,0,0,0.00
2013-10-6,93,77,65,70,66,64,96,73,45,30.01,29.89,2,0,0,0.00
2013-10-7,79,70,57,73,68,55,98,90,77,30.01,29.80,4,0,0,0.75
2013-10-8,63,57,52,55,52,50,92,84,73,30.21,30.01,1,0,0,0.00
2013-10-9,59,57,55,57,55,52,98,92,86,30.20,30.06,3,0,0,0.82
2013-10-10,59,57,55,58,56,55,99,98,98,30.06,29.88,1,0,0,1.42
2013-10-11,64,60,57,63,60,57,99,98,95,29.91,29.85,3,0,0,0.25
2013-10-12,67,64,61,66,63,61,100,98,97,30.06,29.89,3,0,0,0.05
2013-10-13,66,63,61,65,63,60,99,98,97,30.23,30.06,1,0,0,0.16
2013-10-14,71,61,54,65,59,53,97,92,72,30.25,30.16,3,0,0,0.00
2013-10-15,75,61,52,65,58,51,99,90,69,30.18,30.04,1,0,0,0.00
2013-10-16,75,66,60,67,62,59,98,89,72,30.03,29.89,0,0,0,0.00
2013-10-17,77,68,61,68,64,60,98,88,70,29.90,29.74,3,0,0,0.01
2013-10-18,76,63,52,64,53,48,96,73,39,29.99,29.79,2,0,0,0.00
2013-10-19,64,59,51,62,57,50,98,95,91,29.96,29.76,3,0,0,0.03
2013-10-20,70,55,44,58,46,39,96,74,35,30.08,29.83,3,0,0,0.00
2013-10-21,74,54,40,50,45,40,98,74,39,30.14,29.98,1,0,0,0.00
2013-10-22,71,60,51,56,54,49,93,79,58,29.87,29.80,1,0,0,0.00
2013-10-27,48,46,44,42,42,41,89,85,79,30.09,30.06,0,0,0,0.00
2013-10-28,70,53,39,52,45,38,98,78,49,30.22,30.09,1,0,0,0.00
2013-10-29,74,59,50,53,49,47,89,73,41,30.32,30.21,1,0,0,0.00
2013-10-30,67,58,50,60,54,46,96,89,76,30.28,30.12,0,0,0,0.01
2013-10-31,73,64,55,64,59,54,98,86,65,30.15,29.82,1,0,0,0.00
2013-11-1,72,69,66,67,65,62,96,87,81,29.81,29.60,6,1,0,0.01
2013-11-2,77,64,53,65,52,40,98,71,32,29.86,29.60,4,0,0,0.01
2013-11-3,66,50,39,44,37,30,85,63,33,30.36,29.86,4,0,0,0.00
2013-11-4,54,42,35,34,31,30,83,67,42,30.58,30.36,2,0,0,0.00
2013-11-5,61,49,38,49,42,32,88,76,61,30.55,30.41,1,0,0,0.00
2013-11-6,76,59,46,57,52,44,97,79,51,30.42,30.07,3,0,0,0.00
2013-11-7,69,59,43,63,55,36,98,85,65,30.06,29.83,2,0,0,0.03
2013-11-8,61,46,36,36,31,27,78,59,34,30.29,30.04,3,0,0,0.00
2013-11-9,63,46,32,35,32,30,96,65,30,30.34,30.07,3,0,0,0.00
2013-11-10,70,54,41,41,33,28,63,47,25,30.22,29.93,6,1,0,0.00
2013-11-11,65,48,36,35,32,28,79,56,31,30.31,30.05,2,0,0,0.00
2013-11-12,51,44,33,41,28,18,68,55,44,30.37,29.94,10,1,0,0.00
2013-11-13,51,36,27,24,21,18,76,56,32,30.47,30.38,4,0,0,0.00
2013-11-14,64,43,28,26,22,16,75,48,17,30.38,30.24,6,0,0,0.00
2013-11-15,63,49,36,48,32,26,85,55,27,30.27,30.17,3,0,0,0.01
2013-11-16,60,55,50,57,53,48,98,94,87,30.27,30.19,1,0,0,0.34
2013-11-17,71,61,51,62,57,50,99,89,70,30.20,29.77,3,0,0,0.06
2013-11-18,73,64,53,66,46,27,97,58,28,29.89,29.70,4,0,0,0.05
2013-11-19,57,46,40,33,30,27,66,53,38,30.32,29.89,5,1,0,0.00
2013-11-20,54,42,35,36,32,27,86,69,49,30.49,30.32,4,0,0,0.00
2013-11-21,60,48,39,47,42,35,88,78,59,30.49,30.36,2,0,0,0.00
2013-11-22,74,60,48,59,52,43,88,75,55,30.36,29.97,3,0,0,0.00
2013-11-23,63,52,41,59,36,20,86,56,33,30.12,29.96,6,1,0,0.00
2013-11-24,40,31,24,24,10,4,66,42,25,30.51,30.12,10,1,0,0.00
2013-11-25,42,31,21,17,12,8,73,48,30,30.56,30.35,3,0,0,0.00
2013-11-26,62,43,36,61,35,13,100,76,37,30.36,29.51,4,0,0,1.21
2013-11-27,46,40,33,45,38,24,98,92,66,30.06,29.47,4,1,0,1.37
2013-11-28,45,33,27,27,21,18,83,63,42,30.45,30.07,4,0,0,0.00
2013-11-29,51,34,25,32,25,23,93,72,45,30.66,30.43,5,0,0,0.00
2013-11-30,48,35,26,34,28,23,89,77,56,30.66,30.34,2,0,0,0.00
2013-12-1,53,38,28,35,30,26,96,76,45,30.33,29.99,1,0,0,0.00
2013-12-2,63,43,30,39,33,29,97,73,37,29.98,29.82,2,0,0,0.00
2013-12-3,63,46,36,44,39,34,95,78,47,29.97,29.84,1,0,0,0.00
2013-12-4,59,53,47,54,50,43,96,90,83,30.05,29.97,2,0,0,0.04
2013-12-5,63,60,54,62,59,53,98,96,93,30.07,29.94,1,0,0,0.08
2013-12-6,70,59,46,66,57,44,97,93,76,30.07,29.90,4,0,0,0.01
2013-12-7,46,41,34,44,37,30,97,87,71,30.49,30.05,6,1,0,0.42
2013-12-8,35,33,33,33,31,27,97,90,75,30.51,30.26,4,0,0,1.05
2013-12-9,41,37,33,40,36,32,98,98,97,30.26,30.02,2,0,0,0.40
2013-12-10,40,38,32,39,37,28,98,96,84,30.23,29.94,2,0,0,0.26
2013-12-11,50,36,28,29,27,24,88,71,40,30.39,30.22,3,0,0,0.00
2013-12-12,43,33,29,28,22,13,87,66,41,30.39,30.22,4,0,0,0.00
2013-12-13,52,37,28,26,19,14,63,50,29,30.31,30.21,5,0,0,0.00
2013-12-14,47,41,37,45,35,26,100,79,55,30.27,29.70,3,0,0,0.96
2013-12-15,57,44,37,43,36,27,98,77,47,29.96,29.63,4,0,0,0.01
2013-12-16,50,40,34,34,31,28,89,71,50,30.12,29.95,3,0,0,0.00
2013-12-17,55,42,32,42,36,30,96,82,54,30.09,29.86,4,0,0,0.46
2013-12-18,48,39,33,40,30,24,97,75,43,30.21,29.92,4,0,0,0.00
2013-12-19,66,46,32,32,28,25,79,53,25,30.21,30.11,4,0,0,0.00
2013-12-20,67,54,42,54,44,30,85,68,51,30.15,30.02,7,0,0,0.00
2013-12-21,72,62,52,63,55,49,92,80,62,30.07,29.95,4,0,0,0.00
2013-12-22,75,67,61,69,64,61,98,90,78,30.04,29.87,5,0,0,0.79
2013-12-23,66,59,43,65,57,37,98,94,79,30.15,29.92,6,1,0,0.45
2013-12-24,48,38,29,37,28,14,81,68,51,30.43,30.15,4,1,0,0.00
2013-12-25,40,28,22,22,16,13,85,62,42,30.55,30.38,3,0,0,0.00
2013-12-26,54,35,23,29,24,21,94,69,34,30.37,30.19,4,0,0,0.00
2013-12-27,57,38,27,30,26,23,97,67,28,30.42,30.31,5,0,0,0.00
2013-12-28,64,45,32,31,27,24,76,53,25,30.34,30.12,3,0,0,0.00
2013-12-29,53,48,43,53,45,30,98,90,52,30.13,29.57,5,0,0,1.31
2013-12-30,57,45,39,45,40,32,91,81,63,30.13,29.82,3,0,0,0.00
2013-12-31,52,40,32,36,28,20,89,65,36,30.31,30.11,4,0,0,0.00
2014-1-1,54,37,28,35,28,23,88,72,44,30.38,30.11,2,0,0,0.00
2014-1-2,46,38,32,39,34,28,95,85,67,30.11,29.54,1,0,0,0.40